createdAt,value
2022-11-14T00:01:39.330Z,97499.47
2022-11-14T00:03:41.955Z,97498.22
2022-11-14T00:05:46.400Z,97488.66
2022-11-14T00:07:49.087Z,97505.03
2022-11-14T00:09:51.757Z,97512.06
2022-11-14T00:11:55.232Z,97512.97
2022-11-14T00:13:57.919Z,97515.34
2022-11-14T00:16:00.567Z,97516.75
2022-11-14T00:18:03.395Z,97517.09
2022-11-14T00:20:07.951Z,97510.06
2022-11-14T00:22:10.786Z,97511.69
2022-11-14T00:24:13.536Z,97511.47
2022-11-14T00:26:16.225Z,97524.19
2022-11-14T00:28:18.894Z,97516.22
2022-11-14T00:30:21.597Z,97524.00
2022-11-14T00:32:24.339Z,97527.69
2022-11-14T00:34:27.026Z,97517.50
2022-11-14T00:36:29.640Z,97529.91
2022-11-14T00:38:32.593Z,97530.31
2022-11-14T00:40:35.390Z,97533.41
2022-11-14T00:42:38.114Z,97529.91
2022-11-14T00:44:41.450Z,97533.22
2022-11-14T00:46:44.045Z,97545.75
2022-11-14T00:48:46.911Z,97537.88
2022-11-14T00:50:50.134Z,97553.88
2022-11-14T00:52:53.792Z,97560.06
2022-11-14T00:54:56.583Z,97557.19
2022-11-14T00:56:59.361Z,97572.63
2022-11-14T00:59:02.073Z,97569.41
2022-11-14T01:01:05.042Z,97577.31
2022-11-14T01:03:07.776Z,97566.31
2022-11-14T01:05:10.467Z,97564.31
2022-11-14T01:07:13.143Z,97567.91
2022-11-14T01:09:16.424Z,97562.63
2022-11-14T01:11:21.094Z,97568.81
2022-11-14T01:13:24.144Z,97563.13
2022-11-14T01:15:26.718Z,97561.53
2022-11-14T01:17:29.563Z,97576.63
2022-11-14T01:19:32.222Z,97586.66
2022-11-14T01:21:34.874Z,97582.31
2022-11-14T01:23:37.888Z,97572.75
2022-11-14T01:25:41.753Z,97590.03
2022-11-14T01:27:44.395Z,97596.31
2022-11-14T01:29:47.192Z,97605.16
2022-11-14T01:31:49.818Z,97604.34
2022-11-14T01:33:53.973Z,97612.53
2022-11-14T01:36:00.469Z,97622.53
2022-11-14T01:38:03.424Z,97603.22
2022-11-14T01:40:06.718Z,97594.31
2022-11-14T01:42:09.684Z,97612.50
2022-11-14T01:44:41.662Z,97622.13
2022-11-14T01:46:51.348Z,97627.22
2022-11-14T01:49:16.259Z,97622.44
2022-11-14T01:51:22.133Z,97629.09
2022-11-14T01:53:25.759Z,97631.72
2022-11-14T01:55:28.758Z,97648.56
2022-11-14T01:57:38.763Z,97668.78
2022-11-14T01:59:45.007Z,97644.50
2022-11-14T02:01:52.695Z,97649.75
2022-11-14T02:03:57.423Z,97685.84
2022-11-14T02:06:01.740Z,97665.06
2022-11-14T02:08:04.703Z,97674.84
2022-11-14T02:10:15.623Z,97658.88
2022-11-14T02:12:19.680Z,97686.66
2022-11-14T02:14:23.073Z,97680.25
2022-11-14T02:17:07.256Z,97688.34
2022-11-14T02:19:09.900Z,97682.44
2022-11-14T02:21:12.673Z,97683.53
2022-11-14T02:23:17.363Z,97685.34
2022-11-14T02:25:20.314Z,97679.72
2022-11-14T02:27:23.312Z,97690.59
2022-11-14T02:29:25.954Z,97686.59
2022-11-14T02:31:28.627Z,97693.03
2022-11-14T02:33:31.311Z,97706.78
2022-11-14T02:35:33.985Z,97717.38
2022-11-14T02:37:36.958Z,97702.66
2022-11-14T02:39:39.749Z,97692.72
2022-11-14T02:41:42.446Z,97708.03
2022-11-14T02:43:45.080Z,97704.47
2022-11-14T02:45:47.842Z,97699.81
2022-11-14T02:47:50.702Z,97711.91
2022-11-14T02:49:53.565Z,97711.47
2022-11-14T02:51:56.266Z,97723.94
2022-11-14T02:53:58.927Z,97730.81
2022-11-14T02:56:01.972Z,97717.81
2022-11-14T02:58:04.846Z,97723.72
2022-11-14T03:00:14.405Z,97743.91
2022-11-14T03:02:17.656Z,97730.50
2022-11-14T03:04:20.441Z,97740.06
2022-11-14T03:06:23.155Z,97741.38
2022-11-14T03:08:25.818Z,97737.34
2022-11-14T03:10:28.590Z,97741.94
2022-11-14T03:12:31.532Z,97748.94
2022-11-14T03:14:34.257Z,97739.34
2022-11-14T03:16:37.168Z,97747.34
2022-11-14T03:18:39.986Z,97770.56
2022-11-14T03:20:42.601Z,97761.44
2022-11-14T03:22:45.767Z,97743.69
2022-11-14T03:24:48.454Z,97749.34
2022-11-14T03:26:51.328Z,97768.81
2022-11-14T03:28:55.582Z,97769.88
2022-11-14T03:30:58.267Z,97781.44
2022-11-14T03:33:00.888Z,97774.19
2022-11-14T03:35:03.851Z,97781.19
2022-11-14T03:37:06.562Z,97758.91
2022-11-14T03:39:09.447Z,97775.66
2022-11-14T03:41:12.232Z,97790.13
2022-11-14T03:43:14.936Z,97804.13
2022-11-14T03:45:17.663Z,97787.69
2022-11-14T03:47:20.377Z,97803.84
2022-11-14T03:49:22.991Z,97796.56
2022-11-14T03:51:25.565Z,97791.41
2022-11-14T03:53:28.616Z,97814.28
2022-11-14T03:55:31.243Z,97801.69
2022-11-14T03:57:34.098Z,97805.50
2022-11-14T03:59:37.009Z,97799.78
2022-11-14T04:01:39.887Z,97798.22
2022-11-14T04:03:42.731Z,97807.75
2022-11-14T04:05:46.045Z,97805.06
2022-11-14T04:07:48.694Z,97823.72
2022-11-14T04:09:52.149Z,97844.44
2022-11-14T04:11:54.838Z,97814.63
2022-11-14T04:13:57.475Z,97820.25
2022-11-14T04:16:00.527Z,97831.03
2022-11-14T04:18:03.363Z,97841.81
2022-11-14T04:20:06.542Z,97857.44
2022-11-14T04:22:09.230Z,97846.97
2022-11-14T04:24:11.894Z,97850.75
2022-11-14T04:26:14.478Z,97857.75
2022-11-14T04:28:17.309Z,97880.38
2022-11-14T04:30:20.090Z,97846.16
2022-11-14T04:32:22.733Z,97854.53
2022-11-14T04:34:25.352Z,97859.06
2022-11-14T04:36:28.041Z,97854.75
2022-11-14T04:38:30.896Z,97838.75
2022-11-14T04:40:33.915Z,97882.34
2022-11-14T04:42:36.552Z,97881.69
2022-11-14T04:44:39.116Z,97871.16
2022-11-14T04:46:41.771Z,97881.69
2022-11-14T04:48:44.615Z,97896.50
2022-11-14T04:50:47.220Z,97879.59
2022-11-14T04:52:53.757Z,97875.00
2022-11-14T04:54:56.483Z,97884.50
2022-11-14T04:56:59.207Z,97875.78
2022-11-14T04:59:02.122Z,97869.84
2022-11-14T05:01:13.996Z,97874.94
2022-11-14T05:03:16.737Z,97874.66
2022-11-14T05:05:19.443Z,97887.84
2022-11-14T05:07:22.208Z,97887.66
2022-11-14T05:09:24.914Z,97890.00
2022-11-14T05:11:29.338Z,97889.69
2022-11-14T05:13:32.272Z,97899.78
2022-11-14T05:15:35.793Z,97906.88
2022-11-14T05:17:38.424Z,97901.56
2022-11-14T05:19:41.099Z,97928.56
2022-11-14T05:21:43.762Z,97918.63
2022-11-14T05:23:46.375Z,97934.50
2022-11-14T05:26:06.365Z,97937.16
2022-11-14T05:28:09.079Z,97939.53
2022-11-14T05:30:12.417Z,97933.13
2022-11-14T05:32:16.509Z,97935.00
2022-11-14T05:34:19.234Z,97937.97
2022-11-14T05:36:21.880Z,97953.56
2022-11-14T05:38:24.611Z,97950.06
2022-11-14T05:40:27.281Z,97957.38
2022-11-14T05:42:30.071Z,97952.25
2022-11-14T05:44:33.015Z,97959.25
2022-11-14T05:46:35.873Z,97953.13
2022-11-14T05:48:39.241Z,97987.31
2022-11-14T05:50:41.965Z,97970.66
2022-11-14T05:52:44.560Z,98021.53
2022-11-14T05:54:47.169Z,98008.09
2022-11-14T05:56:49.975Z,98014.53
2022-11-14T05:58:52.577Z,97993.63
2022-11-14T06:01:07.224Z,98006.28
2022-11-14T06:03:10.931Z,98015.16
2022-11-14T06:05:13.991Z,98074.09
2022-11-14T06:07:20.191Z,98025.69
2022-11-14T06:09:23.379Z,98038.31
2022-11-14T06:11:26.017Z,98049.06
2022-11-14T06:13:28.652Z,98041.56
2022-11-14T06:15:31.437Z,98031.38
2022-11-14T06:17:34.116Z,98053.41
2022-11-14T06:19:36.742Z,98039.72
2022-11-14T06:21:39.451Z,98038.63
2022-11-14T06:23:42.535Z,98060.13
2022-11-14T06:25:45.156Z,98076.81
2022-11-14T06:27:47.841Z,98057.97
2022-11-14T06:29:50.449Z,98068.47
2022-11-14T06:31:53.100Z,98060.69
2022-11-14T06:33:57.021Z,98052.63
2022-11-14T06:36:01.453Z,98061.75
2022-11-14T06:38:04.097Z,98069.81
2022-11-14T06:40:07.709Z,98060.13
2022-11-14T06:42:10.516Z,98064.97
2022-11-14T06:44:15.244Z,98082.19
2022-11-14T06:46:20.235Z,98076.53
2022-11-14T06:48:22.854Z,98084.06
2022-11-14T06:50:25.403Z,98070.38
2022-11-14T06:52:28.118Z,98087.31
2022-11-14T06:54:30.821Z,98104.19
2022-11-14T06:56:33.434Z,98110.41
2022-11-14T06:58:39.298Z,98112.25
2022-11-14T07:00:41.944Z,98108.50
2022-11-14T07:02:46.772Z,98123.53
2022-11-14T07:04:49.730Z,98100.16
2022-11-14T07:06:52.385Z,98126.50
2022-11-14T07:08:56.519Z,98118.44
2022-11-14T07:11:10.643Z,98130.50
2022-11-14T07:13:13.342Z,98160.34
2022-11-14T07:15:16.006Z,98142.59
2022-11-14T07:17:18.711Z,98138.56
2022-11-14T07:19:21.346Z,98149.88
2022-11-14T07:21:25.034Z,98162.25
2022-11-14T07:23:27.878Z,98132.41
2022-11-14T07:25:30.523Z,98129.16
2022-11-14T07:27:33.227Z,98153.09
2022-11-14T07:29:35.963Z,98161.13
2022-11-14T07:31:38.620Z,98141.97
2022-11-14T07:33:42.116Z,98155.69
2022-11-14T07:35:44.981Z,98152.22
2022-11-14T07:37:47.696Z,98199.44
2022-11-14T07:39:50.404Z,98161.88
2022-11-14T07:41:53.078Z,98139.59
2022-11-14T07:43:55.748Z,98149.81
2022-11-14T07:46:03.246Z,98131.53
2022-11-14T07:48:06.394Z,98159.97
2022-11-14T07:50:09.499Z,98176.38
2022-11-14T07:52:12.081Z,98200.78
2022-11-14T07:54:14.929Z,98173.94
2022-11-14T07:56:17.586Z,98170.16
2022-11-14T07:58:20.324Z,98180.34
2022-11-14T08:00:23.073Z,98170.94
2022-11-14T08:02:25.814Z,98233.53
2022-11-14T08:04:28.644Z,98178.75
2022-11-14T08:06:31.676Z,98186.00
2022-11-14T08:08:35.195Z,98182.81
2022-11-14T08:10:37.851Z,98166.41
2022-11-14T08:12:41.463Z,98176.06
2022-11-14T08:14:44.134Z,98182.53
2022-11-14T08:16:46.806Z,98181.69
2022-11-14T08:18:49.558Z,98212.31
2022-11-14T08:20:52.743Z,98201.81
2022-11-14T08:23:02.696Z,98199.97
2022-11-14T08:25:05.912Z,98179.84
2022-11-14T08:27:08.533Z,98196.53
2022-11-14T08:29:11.190Z,98206.97
2022-11-14T08:31:14.288Z,98200.00
2022-11-14T08:33:16.938Z,98197.63
2022-11-14T08:35:19.700Z,98196.78
2022-11-14T08:37:22.466Z,98183.66
2022-11-14T08:39:25.272Z,98188.47
2022-11-14T08:41:27.880Z,98194.13
2022-11-14T08:43:32.297Z,98226.63
2022-11-14T08:45:34.941Z,98213.72
2022-11-14T08:47:37.561Z,98218.84
2022-11-14T08:49:40.256Z,98190.63
2022-11-14T08:51:42.900Z,98272.22
2022-11-14T08:53:45.574Z,98225.75
2022-11-14T08:55:48.838Z,98246.44
2022-11-14T08:57:54.061Z,98259.06
2022-11-14T08:59:56.756Z,98267.13
2022-11-14T09:01:59.525Z,98230.00
2022-11-14T09:04:02.403Z,98238.94
2022-11-14T09:06:05.882Z,98241.63
2022-11-14T09:08:08.762Z,98208.06
2022-11-14T09:10:11.425Z,98233.03
2022-11-14T09:12:15.701Z,98222.31
2022-11-14T09:14:18.688Z,98247.56
2022-11-14T09:16:21.407Z,98251.31
2022-11-14T09:18:24.043Z,98247.00
2022-11-14T09:20:35.121Z,98264.50
2022-11-14T09:22:40.153Z,98251.81
2022-11-14T09:24:43.167Z,98262.34
2022-11-14T09:26:45.858Z,98270.91
2022-11-14T09:28:48.511Z,98250.50
2022-11-14T09:30:51.146Z,98256.66
2022-11-14T09:32:53.842Z,98253.19
2022-11-14T09:34:56.435Z,98263.66
2022-11-14T09:36:59.127Z,98259.88
2022-11-14T09:39:01.966Z,98275.50
2022-11-14T09:41:09.455Z,98291.59
2022-11-14T09:43:39.867Z,98280.56
2022-11-14T09:45:48.414Z,98279.78
2022-11-14T09:47:55.780Z,98275.50
2022-11-14T09:50:11.608Z,98270.69
2022-11-14T09:52:35.692Z,98276.34
2022-11-14T09:54:51.944Z,98263.72
2022-11-14T09:56:54.769Z,98275.81
2022-11-14T09:58:57.839Z,98324.16
2022-11-14T10:01:09.752Z,98290.88
2022-11-14T10:03:20.009Z,98286.28
2022-11-14T10:05:48.135Z,98308.00
2022-11-14T10:08:02.941Z,98307.44
2022-11-14T10:10:27.138Z,98311.47
2022-11-14T10:12:47.081Z,98310.41
2022-11-14T10:15:05.007Z,98295.91
2022-11-14T10:17:32.989Z,98303.16
2022-11-14T10:19:48.079Z,98313.63
2022-11-14T10:22:08.391Z,98312.59
2022-11-14T10:24:37.301Z,98303.44
2022-11-14T10:27:06.031Z,98300.28
2022-11-14T10:29:40.941Z,98364.19
2022-11-14T10:31:52.754Z,98315.59
2022-11-14T10:34:06.718Z,98339.75
2022-11-14T10:36:43.949Z,98308.59
2022-11-14T10:38:56.518Z,98333.84
2022-11-14T10:41:02.778Z,98326.09
2022-11-14T10:43:21.885Z,98312.16
2022-11-14T10:45:29.569Z,98332.56
2022-11-14T10:47:40.235Z,98332.00
2022-11-14T10:49:45.048Z,98310.00
2022-11-14T10:51:53.072Z,98318.03
2022-11-14T10:54:00.871Z,98334.69
2022-11-14T10:56:05.362Z,98337.94
2022-11-14T10:58:11.255Z,98332.56
2022-11-14T11:00:23.277Z,98329.09
2022-11-14T11:02:25.736Z,98332.28
2022-11-14T11:04:36.853Z,98337.09
2022-11-14T11:06:41.853Z,98320.31
2022-11-14T11:09:17.537Z,98344.84
2022-11-14T11:11:32.296Z,98338.66
2022-11-14T11:13:37.839Z,98350.22
2022-11-14T11:15:42.567Z,98345.13
2022-11-14T11:18:01.017Z,98345.63
2022-11-14T11:20:41.526Z,98351.56
2022-11-14T11:22:44.300Z,98346.19
2022-11-14T11:24:47.068Z,98342.94
2022-11-14T11:27:23.595Z,98356.38
2022-11-14T11:29:26.411Z,98355.56
2022-11-14T11:31:29.209Z,98356.34
2022-11-14T11:33:39.070Z,98347.75
2022-11-14T11:35:43.495Z,98358.78
2022-11-14T11:37:57.617Z,98351.25
2022-11-14T11:40:04.688Z,98370.88
2022-11-14T11:42:14.018Z,98383.75
2022-11-14T11:44:19.453Z,98369.22
2022-11-14T11:46:34.816Z,98368.66
2022-11-14T11:48:41.183Z,98380.72
2022-11-14T11:50:44.048Z,98373.78
2022-11-14T11:52:52.532Z,98376.22
2022-11-14T11:55:20.544Z,98376.97
2022-11-14T11:57:29.892Z,98381.28
2022-11-14T11:59:44.130Z,98395.22
2022-11-14T12:01:46.867Z,98392.56
2022-11-14T12:03:54.682Z,98380.16
2022-11-14T12:06:09.692Z,98371.63
2022-11-14T12:08:25.670Z,98385.81
2022-11-14T12:10:38.306Z,98374.00
2022-11-14T12:12:44.144Z,98379.66
2022-11-14T12:15:08.461Z,98377.75
2022-11-14T12:17:47.903Z,98425.56
2022-11-14T12:20:20.361Z,98388.44
2022-11-14T12:22:28.525Z,98397.88
2022-11-14T12:24:43.850Z,98389.06
2022-11-14T12:27:05.295Z,98408.06
2022-11-14T12:29:10.778Z,98385.81
2022-11-14T12:31:17.476Z,98393.56
2022-11-14T12:33:35.052Z,98398.41
2022-11-14T12:35:39.605Z,98411.06
2022-11-14T12:37:52.671Z,98405.09
2022-11-14T12:40:00.742Z,98410.44
2022-11-14T12:42:10.218Z,98405.03
2022-11-14T12:44:40.062Z,98400.47
2022-11-14T12:47:04.599Z,98420.81
2022-11-14T12:49:48.453Z,98421.19
2022-11-14T12:51:52.113Z,98405.88
2022-11-14T12:53:58.634Z,98422.47
2022-11-14T12:56:21.700Z,98448.09
2022-11-14T12:58:36.271Z,98420.16
2022-11-14T13:01:02.097Z,98426.84
2022-11-14T13:03:23.246Z,98414.94
2022-11-14T13:05:31.223Z,98430.00
2022-11-14T13:07:41.807Z,98449.06
2022-11-14T13:09:50.318Z,98436.66
2022-11-14T13:12:11.798Z,98444.16
2022-11-14T13:14:32.978Z,98441.53
2022-11-14T13:16:54.198Z,98466.16
2022-11-14T13:19:31.615Z,98447.66
2022-11-14T13:21:46.473Z,98447.38
2022-11-14T13:23:49.275Z,98449.59
2022-11-14T13:26:10.547Z,98466.78
2022-11-14T13:28:54.641Z,98468.41
2022-11-14T13:31:15.649Z,98458.72
2022-11-14T13:33:42.275Z,98453.63
2022-11-14T13:35:54.486Z,98462.44
2022-11-14T13:38:03.162Z,98465.47
2022-11-14T13:40:16.296Z,98483.38
2022-11-14T13:43:07.070Z,98464.88
2022-11-14T13:45:12.431Z,98475.25
2022-11-14T13:47:19.060Z,98473.38
2022-11-14T13:49:52.714Z,98465.25
2022-11-14T13:51:56.520Z,98463.94
2022-11-14T13:54:00.286Z,98467.75
2022-11-14T13:56:03.380Z,98468.25
2022-11-14T13:58:21.440Z,98463.91
2022-11-14T14:00:24.762Z,98471.91
2022-11-14T14:02:49.233Z,98474.25
2022-11-14T14:05:18.110Z,98477.25
2022-11-14T14:07:51.932Z,98468.69
2022-11-14T14:10:17.546Z,98465.47
2022-11-14T14:12:39.377Z,98468.75
2022-11-14T14:15:23.905Z,98463.38
2022-11-14T14:17:29.862Z,98478.16
2022-11-14T14:19:53.510Z,98469.13
2022-11-14T14:22:04.758Z,98475.28
2022-11-14T14:24:32.417Z,98482.53
2022-11-14T14:26:38.224Z,98476.41
2022-11-14T14:29:03.607Z,98478.81
2022-11-14T14:31:08.546Z,98482.88
2022-11-14T14:33:16.141Z,98507.91
2022-11-14T14:35:27.619Z,98472.78
2022-11-14T14:37:30.303Z,98475.09
2022-11-14T14:39:33.235Z,98476.03
2022-11-14T14:41:36.087Z,98475.72
2022-11-14T14:43:42.295Z,98477.78
2022-11-14T14:45:53.437Z,98475.19
2022-11-14T14:48:13.167Z,98477.38
2022-11-14T14:50:26.969Z,98481.97
2022-11-14T14:52:37.685Z,98477.38
2022-11-14T14:54:40.742Z,98477.94
2022-11-14T14:56:54.314Z,98480.09
2022-11-14T14:58:57.290Z,98468.00
2022-11-14T15:01:03.643Z,98494.13
2022-11-14T15:03:07.155Z,98486.63
2022-11-14T15:05:10.032Z,98500.13
2022-11-14T15:07:24.905Z,98491.81
2022-11-14T15:09:32.518Z,98486.13
2022-11-14T15:11:36.578Z,98479.56
2022-11-14T15:13:41.716Z,98488.94
2022-11-14T15:15:44.805Z,98488.88
2022-11-14T15:17:50.413Z,98485.13
2022-11-14T15:19:54.392Z,98509.44
2022-11-14T15:22:24.947Z,98490.94
2022-11-14T15:24:27.626Z,98497.50
2022-11-14T15:26:31.830Z,98493.91
2022-11-14T15:28:35.093Z,98493.63
2022-11-14T15:30:39.329Z,98499.38
2022-11-14T15:32:52.328Z,98506.69
2022-11-14T15:35:09.092Z,98496.66
2022-11-14T15:37:14.701Z,98496.94
2022-11-14T15:39:29.535Z,98501.44
2022-11-14T15:41:33.828Z,98500.13
2022-11-14T15:43:37.446Z,98512.22
2022-11-14T15:45:40.938Z,98501.56
2022-11-14T15:47:43.930Z,98500.25
2022-11-14T15:50:06.932Z,98501.56
2022-11-14T15:52:34.313Z,98490.78
2022-11-14T15:54:38.053Z,98496.31
2022-11-14T15:56:40.956Z,98496.53
2022-11-14T15:58:48.254Z,98486.28
2022-11-14T16:00:55.190Z,98495.63
2022-11-14T16:02:58.615Z,98494.81
2022-11-14T16:05:04.769Z,98494.03
2022-11-14T16:07:12.128Z,98480.91
2022-11-14T16:09:17.648Z,98491.63
2022-11-14T16:11:20.395Z,98480.97
2022-11-14T16:13:23.041Z,98489.03
2022-11-14T16:15:25.670Z,98496.94
2022-11-14T16:17:28.350Z,98487.31
2022-11-14T16:19:30.947Z,98494.84
2022-11-14T16:21:34.408Z,98492.22
2022-11-14T16:23:37.157Z,98485.56
2022-11-14T16:25:39.995Z,98481.00
2022-11-14T16:27:42.627Z,98487.63
2022-11-14T16:29:45.651Z,98487.91
2022-11-14T16:31:48.747Z,98485.00
2022-11-14T16:33:51.983Z,98493.84
2022-11-14T16:35:54.793Z,98489.00
2022-11-14T16:37:57.371Z,98496.78
2022-11-14T16:40:00.236Z,98491.00
2022-11-14T16:42:03.455Z,98487.75
2022-11-14T16:44:06.215Z,98502.56
2022-11-14T16:46:11.663Z,98491.78
2022-11-14T16:48:14.741Z,98502.69
2022-11-14T16:50:21.761Z,98503.19
2022-11-14T16:52:24.886Z,98504.50
2022-11-14T16:54:28.247Z,98500.19
2022-11-14T16:56:31.709Z,98519.53
2022-11-14T16:58:34.832Z,98499.38
2022-11-14T17:00:37.816Z,98501.31
2022-11-14T17:02:41.154Z,98514.97
2022-11-14T17:04:44.982Z,98501.56
2022-11-14T17:06:47.801Z,98521.41
2022-11-14T17:08:54.488Z,98510.19
2022-11-14T17:10:57.116Z,98509.13
2022-11-14T17:12:59.824Z,98508.75
2022-11-14T17:15:02.501Z,98511.94
2022-11-14T17:17:06.734Z,98513.53
2022-11-14T17:19:09.471Z,98519.13
2022-11-14T17:21:13.573Z,98507.38
2022-11-14T17:23:16.370Z,98505.66
2022-11-14T17:25:19.063Z,98503.00
2022-11-14T17:27:21.692Z,98530.53
2022-11-14T17:29:24.294Z,98514.22
2022-11-14T17:31:27.000Z,98508.13
2022-11-14T17:33:29.867Z,98509.19
2022-11-14T17:35:35.597Z,98506.00
2022-11-14T17:37:38.331Z,98516.66
2022-11-14T17:39:41.020Z,98506.06
2022-11-14T17:41:43.783Z,98507.44
2022-11-14T17:43:46.718Z,98506.13
2022-11-14T17:45:56.674Z,98511.19
2022-11-14T17:47:59.323Z,98515.19
2022-11-14T17:50:01.994Z,98509.50
2022-11-14T17:52:06.423Z,98502.00
2022-11-14T17:54:09.167Z,98527.19
2022-11-14T17:56:15.534Z,98503.88
2022-11-14T17:58:18.395Z,98507.94
2022-11-14T18:00:21.151Z,98501.78
2022-11-14T18:02:23.839Z,98495.84
2022-11-14T18:04:26.968Z,98499.84
2022-11-14T18:06:29.624Z,98505.81
2022-11-14T18:08:32.564Z,98500.69
2022-11-14T18:10:35.687Z,98507.03
2022-11-14T18:12:38.534Z,98507.13
2022-11-14T18:14:44.340Z,98508.91
2022-11-14T18:17:11.194Z,98504.44
2022-11-14T18:19:09.640Z,98503.56
2022-11-14T18:21:19.276Z,98503.38
2022-11-14T18:23:22.216Z,98510.91
2022-11-14T18:25:24.856Z,98508.75
2022-11-14T18:27:27.899Z,98494.47
2022-11-14T18:29:31.365Z,98510.06
2022-11-14T18:31:34.010Z,98498.25
2022-11-14T18:33:39.692Z,98510.28
2022-11-14T18:35:42.296Z,98483.00
2022-11-14T18:37:44.985Z,98495.34
2022-11-14T18:39:47.759Z,98500.38
2022-11-14T18:41:50.531Z,98488.56
2022-11-14T18:43:56.245Z,98506.81
2022-11-14T18:46:07.142Z,98499.34
2022-11-14T18:48:09.853Z,98488.03
2022-11-14T18:50:12.590Z,98519.47
2022-11-14T18:52:17.537Z,98495.41
2022-11-14T18:54:21.005Z,98508.50
2022-11-14T18:56:25.653Z,98499.63
2022-11-14T18:58:28.284Z,98495.66
2022-11-14T19:00:30.929Z,98499.34
2022-11-14T19:02:33.761Z,98491.09
2022-11-14T19:04:36.634Z,98491.59
2022-11-14T19:06:40.931Z,98498.03
2022-11-14T19:08:43.734Z,98498.03
2022-11-14T19:10:46.494Z,98511.75
2022-11-14T19:12:49.196Z,98500.47
2022-11-14T19:14:52.042Z,98495.34
2022-11-14T19:16:55.350Z,98500.38
2022-11-14T19:18:58.973Z,98492.28
2022-11-14T19:21:03.732Z,98501.06
2022-11-14T19:23:06.390Z,98500.19
2022-11-14T19:25:09.473Z,98503.38
2022-11-14T19:27:13.446Z,98497.44
2022-11-14T19:29:16.535Z,98490.38
2022-11-14T19:31:20.822Z,98503.03
2022-11-14T19:33:24.205Z,98492.31
2022-11-14T19:35:27.552Z,98516.75
2022-11-14T19:37:30.266Z,98502.53
2022-11-14T19:39:33.238Z,98502.88
2022-11-14T19:41:35.881Z,98469.41
2022-11-14T19:43:38.776Z,98495.06
2022-11-14T19:45:41.475Z,98496.13
2022-11-14T19:47:44.113Z,98490.09
2022-11-14T19:49:46.720Z,98502.69
2022-11-14T19:51:50.304Z,98488.97
2022-11-14T19:53:53.911Z,98485.59
2022-11-14T19:56:04.230Z,98491.34
2022-11-14T19:58:07.218Z,98497.81
2022-11-14T20:00:10.343Z,98493.13
2022-11-14T20:02:14.075Z,98494.13
2022-11-14T20:04:16.659Z,98490.44
2022-11-14T20:06:23.498Z,98507.53
2022-11-14T20:08:26.344Z,98488.75
2022-11-14T20:10:29.027Z,98496.81
2022-11-14T20:12:34.628Z,98488.19
2022-11-14T20:14:37.304Z,98491.38
2022-11-14T20:16:40.005Z,98491.69
2022-11-14T20:18:45.896Z,98491.38
2022-11-14T20:20:48.822Z,98494.78
2022-11-14T20:22:51.603Z,98499.78
2022-11-14T20:24:54.287Z,98492.50
2022-11-14T20:26:56.929Z,98488.50
2022-11-14T20:29:00.005Z,98490.38
2022-11-14T20:31:10.270Z,98497.53
2022-11-14T20:33:13.189Z,98485.81
2022-11-14T20:35:16.075Z,98485.59
2022-11-14T20:37:18.801Z,98484.50
2022-11-14T20:39:21.460Z,98479.09
2022-11-14T20:41:25.417Z,98488.25
2022-11-14T20:43:29.625Z,98486.97
2022-11-14T20:45:32.543Z,98484.03
2022-11-14T20:47:35.204Z,98491.19
2022-11-14T20:49:38.171Z,98482.66
2022-11-14T20:51:41.031Z,98484.78
2022-11-14T20:53:44.360Z,98484.22
2022-11-14T20:55:53.492Z,98492.56
2022-11-14T20:57:56.269Z,98491.00
2022-11-14T20:59:58.966Z,98497.16
2022-11-14T21:02:01.651Z,98496.69
2022-11-14T21:04:04.489Z,98499.22
2022-11-14T21:06:11.399Z,98519.00
2022-11-14T21:08:15.487Z,98497.91
2022-11-14T21:10:37.009Z,98491.06
2022-11-14T21:12:39.641Z,98490.84
2022-11-14T21:14:42.261Z,98503.44
2022-11-14T21:16:44.942Z,98498.31
2022-11-14T21:18:48.421Z,98502.88
2022-11-14T21:21:12.047Z,98514.63
2022-11-14T21:23:14.684Z,98504.00
2022-11-14T21:25:17.382Z,98511.13
2022-11-14T21:27:20.003Z,98507.91
2022-11-14T21:29:22.857Z,98508.97
2022-11-14T21:31:28.486Z,98506.94
2022-11-14T21:33:32.982Z,98506.16
2022-11-14T21:35:36.167Z,98506.63
2022-11-14T21:37:38.793Z,98507.47
2022-11-14T21:39:41.465Z,98513.44
2022-11-14T21:41:45.838Z,98510.38
2022-11-14T21:43:49.404Z,98503.31
2022-11-14T21:46:00.217Z,98495.97
2022-11-14T21:48:03.004Z,98507.53
2022-11-14T21:50:05.903Z,98507.94
2022-11-14T21:52:08.623Z,98504.22
2022-11-14T21:54:11.298Z,98505.75
2022-11-14T21:56:34.352Z,98511.91
2022-11-14T21:58:37.320Z,98500.56
2022-11-14T22:00:43.171Z,98503.22
2022-11-14T22:03:04.467Z,98500.69
2022-11-14T22:05:07.900Z,98514.66
2022-11-14T22:07:10.751Z,98501.53
2022-11-14T22:09:13.659Z,98494.69
2022-11-14T22:11:16.559Z,98493.22
2022-11-14T22:13:19.295Z,98501.75
2022-11-14T22:15:22.093Z,98506.56
2022-11-14T22:17:24.905Z,98516.69
2022-11-14T22:19:27.698Z,98527.28
2022-11-14T22:21:30.534Z,98511.78
2022-11-14T22:23:33.604Z,98517.69
2022-11-14T22:25:36.444Z,98498.13
2022-11-14T22:27:39.127Z,98520.59
2022-11-14T22:29:41.969Z,98516.88
2022-11-14T22:31:44.664Z,98512.25
2022-11-14T22:33:49.354Z,98513.53
2022-11-14T22:35:52.162Z,98510.97
2022-11-14T22:37:54.902Z,98518.44
2022-11-14T22:39:57.564Z,98505.69
2022-11-14T22:42:00.267Z,98518.00
2022-11-14T22:44:03.152Z,98514.28
2022-11-14T22:46:06.383Z,98518.34
2022-11-14T22:48:09.088Z,98512.72
2022-11-14T22:50:11.822Z,98515.97
2022-11-14T22:52:14.577Z,98514.94
2022-11-14T22:54:17.304Z,98517.09
2022-11-14T22:56:23.018Z,98513.63
2022-11-14T22:58:26.919Z,98519.16
2022-11-14T23:00:29.590Z,98522.31
2022-11-14T23:02:32.290Z,98518.91
2022-11-14T23:04:35.010Z,98516.78
2022-11-14T23:06:37.812Z,98522.56
2022-11-14T23:08:40.817Z,98516.56
2022-11-14T23:10:44.570Z,98518.00
2022-11-14T23:12:47.416Z,98523.94
2022-11-14T23:14:50.101Z,98516.78
2022-11-14T23:16:52.817Z,98512.25
2022-11-14T23:18:57.990Z,98526.38
2022-11-14T23:21:25.145Z,98527.56
2022-11-14T23:23:28.106Z,98522.16
2022-11-14T23:25:31.047Z,98527.03
2022-11-14T23:27:33.913Z,98523.44
2022-11-14T23:29:36.598Z,98514.69
2022-11-14T23:31:42.076Z,98524.25
2022-11-14T23:33:48.827Z,98518.25
2022-11-14T23:35:51.695Z,98524.97
2022-11-14T23:37:54.498Z,98521.56
2022-11-14T23:39:57.250Z,98531.66
2022-11-14T23:41:59.921Z,98508.53
2022-11-14T23:44:02.697Z,98520.69
2022-11-14T23:46:05.435Z,98518.59
2022-11-14T23:48:08.282Z,98525.16
2022-11-14T23:50:10.955Z,98521.34
2022-11-14T23:52:13.695Z,98526.06
2022-11-14T23:54:16.394Z,98528.09
2022-11-14T23:56:19.102Z,98528.97
2022-11-14T23:58:23.319Z,98520.44
